sensor_id;sensor_type;location;lat;lon;timestamp;P1;durP1;ratioP1;P2;durP2;ratioP2
13445;SDS011;6795;51.232;3.764;2024-03-23T00:55:49;34.35;;;10.57;;
13445;SDS011;6795;51.232;3.764;2024-03-23T00:58:16;39.42;;;10.18;;
13445;SDS011;6795;51.232;3.764;2024-03-23T01:00:42;29.67;;;8.32;;
13445;SDS011;6795;51.232;3.764;2024-03-23T01:03:08;28.92;;;7.93;;
13445;SDS011;6795;51.232;3.764;2024-03-23T01:05:35;35.28;;;9.00;;
13445;SDS011;6795;51.232;3.764;2024-03-23T01:08:01;31.52;;;9.32;;
13445;SDS011;6795;51.232;3.764;2024-03-23T01:10:28;27.00;;;8.40;;
13445;SDS011;6795;51.232;3.764;2024-03-23T01:12:54;30.73;;;9.75;;
13445;SDS011;6795;51.232;3.764;2024-03-23T01:15:20;32.08;;;8.77;;
13445;SDS011;6795;51.232;3.764;2024-03-23T01:17:47;25.83;;;8.75;;
13445;SDS011;6795;51.232;3.764;2024-03-23T01:20:13;24.73;;;8.32;;
13445;SDS011;6795;51.232;3.764;2024-03-23T01:22:39;33.63;;;8.57;;
13445;SDS011;6795;51.232;3.764;2024-03-23T01:25:06;23.65;;;7.82;;
13445;SDS011;6795;51.232;3.764;2024-03-23T01:27:33;25.60;;;7.88;;
13445;SDS011;6795;51.232;3.764;2024-03-23T01:29:59;31.25;;;8.90;;
13445;SDS011;6795;51.232;3.764;2024-03-23T01:32:26;22.98;;;8.55;;
13445;SDS011;6795;51.232;3.764;2024-03-23T01:34:52;28.23;;;8.95;;
13445;SDS011;6795;51.232;3.764;2024-03-23T01:37:18;27.85;;;8.55;;
13445;SDS011;6795;51.232;3.764;2024-03-23T01:39:45;21.80;;;8.10;;
13445;SDS011;6795;51.232;3.764;2024-03-23T01:42:12;22.25;;;8.77;;
13445;SDS011;6795;51.232;3.764;2024-03-23T01:44:38;25.38;;;9.23;;
13445;SDS011;6795;51.232;3.764;2024-03-23T01:47:06;24.83;;;8.10;;
13445;SDS011;6795;51.232;3.764;2024-03-23T01:49:32;28.20;;;8.35;;
13445;SDS011;6795;51.232;3.764;2024-03-23T01:51:59;26.63;;;9.32;;
13445;SDS011;6795;51.232;3.764;2024-03-23T01:54:26;23.80;;;8.80;;
13445;SDS011;6795;51.232;3.764;2024-03-23T01:56:52;24.02;;;9.25;;
13445;SDS011;6795;51.232;3.764;2024-03-23T01:59:18;29.17;;;9.30;;
13445;SDS011;6795;51.232;3.764;2024-03-23T02:01:45;24.63;;;9.70;;
13445;SDS011;6795;51.232;3.764;2024-03-23T02:04:11;25.38;;;9.95;;
13445;SDS011;6795;51.232;3.764;2024-03-23T02:06:38;28.90;;;9.30;;
13445;SDS011;6795;51.232;3.764;2024-03-23T02:09:04;27.17;;;10.82;;
13445;SDS011;6795;51.232;3.764;2024-03-23T02:11:31;32.17;;;10.32;;
13445;SDS011;6795;51.232;3.764;2024-03-23T02:13:57;25.52;;;10.75;;
13445;SDS011;6795;51.232;3.764;2024-03-23T02:16:23;27.58;;;10.35;;
13445;SDS011;6795;51.232;3.764;2024-03-23T02:18:50;24.17;;;10.45;;
13445;SDS011;6795;51.232;3.764;2024-03-23T02:21:16;33.65;;;11.68;;
13445;SDS011;6795;51.232;3.764;2024-03-23T02:23:42;27.58;;;11.25;;
13445;SDS011;6795;51.232;3.764;2024-03-23T02:26:09;33.45;;;11.18;;
13445;SDS011;6795;51.232;3.764;2024-03-23T02:28:35;33.28;;;11.98;;
13445;SDS011;6795;51.232;3.764;2024-03-23T02:31:02;29.73;;;11.52;;
13445;SDS011;6795;51.232;3.764;2024-03-23T02:33:29;27.48;;;11.05;;
13445;SDS011;6795;51.232;3.764;2024-03-23T02:35:57;35.05;;;12.52;;
13445;SDS011;6795;51.232;3.764;2024-03-23T02:38:24;34.22;;;12.32;;
13445;SDS011;6795;51.232;3.764;2024-03-23T02:40:50;30.45;;;13.10;;
13445;SDS011;6795;51.232;3.764;2024-03-23T02:43:16;29.60;;;12.43;;
13445;SDS011;6795;51.232;3.764;2024-03-23T02:45:43;24.50;;;11.60;;
13445;SDS011;6795;51.232;3.764;2024-03-23T02:48:09;32.10;;;12.07;;
13445;SDS011;6795;51.232;3.764;2024-03-23T02:50:35;34.20;;;11.85;;
13445;SDS011;6795;51.232;3.764;2024-03-23T02:53:02;33.55;;;12.18;;
13445;SDS011;6795;51.232;3.764;2024-03-23T02:55:29;36.67;;;13.20;;
13445;SDS011;6795;51.232;3.764;2024-03-23T02:57:55;31.00;;;12.02;;
13445;SDS011;6795;51.232;3.764;2024-03-23T03:00:27;33.25;;;13.15;;
13445;SDS011;6795;51.232;3.764;2024-03-23T03:02:53;33.38;;;13.23;;
13445;SDS011;6795;51.232;3.764;2024-03-23T03:05:20;29.05;;;13.15;;
13445;SDS011;6795;51.232;3.764;2024-03-23T03:07:47;39.58;;;14.45;;
13445;SDS011;6795;51.232;3.764;2024-03-23T03:10:13;35.72;;;13.65;;
13445;SDS011;6795;51.232;3.764;2024-03-23T03:12:40;29.40;;;13.80;;
13445;SDS011;6795;51.232;3.764;2024-03-23T03:15:08;31.10;;;13.13;;
13445;SDS011;6795;51.232;3.764;2024-03-23T03:17:34;33.30;;;14.65;;
13445;SDS011;6795;51.232;3.764;2024-03-23T03:20:01;32.67;;;14.27;;
13445;SDS011;6795;51.232;3.764;2024-03-23T03:22:28;37.28;;;14.40;;
13445;SDS011;6795;51.232;3.764;2024-03-23T03:24:54;37.05;;;13.38;;
13445;SDS011;6795;51.232;3.764;2024-03-23T03:27:20;34.60;;;12.93;;
13445;SDS011;6795;51.232;3.764;2024-03-23T03:29:48;32.95;;;13.27;;
13445;SDS011;6795;51.232;3.764;2024-03-23T03:32:15;31.75;;;12.48;;
13445;SDS011;6795;51.232;3.764;2024-03-23T03:34:41;29.23;;;12.18;;
13445;SDS011;6795;51.232;3.764;2024-03-23T03:37:07;29.08;;;12.02;;
13445;SDS011;6795;51.232;3.764;2024-03-23T03:39:34;29.63;;;10.95;;
13445;SDS011;6795;51.232;3.764;2024-03-23T03:42:00;22.63;;;10.32;;
13445;SDS011;6795;51.232;3.764;2024-03-23T03:44:27;20.70;;;9.88;;
13445;SDS011;6795;51.232;3.764;2024-03-23T03:46:53;25.98;;;9.90;;
13445;SDS011;6795;51.232;3.764;2024-03-23T03:49:20;28.23;;;10.00;;
13445;SDS011;6795;51.232;3.764;2024-03-23T03:51:46;24.75;;;8.95;;
13445;SDS011;6795;51.232;3.764;2024-03-23T03:54:12;32.30;;;10.43;;
13445;SDS011;6795;51.232;3.764;2024-03-23T03:56:39;26.05;;;9.60;;
13445;SDS011;6795;51.232;3.764;2024-03-23T03:59:05;22.92;;;9.75;;
13445;SDS011;6795;51.232;3.764;2024-03-23T04:01:31;17.08;;;8.07;;
13445;SDS011;6795;51.232;3.764;2024-03-23T04:03:58;27.23;;;8.98;;
13445;SDS011;6795;51.232;3.764;2024-03-23T04:06:24;24.75;;;8.77;;
13445;SDS011;6795;51.232;3.764;2024-03-23T04:08:51;34.90;;;8.70;;
13445;SDS011;6795;51.232;3.764;2024-03-23T04:11:17;19.10;;;8.02;;
13445;SDS011;6795;51.232;3.764;2024-03-23T04:13:44;24.98;;;7.35;;
13445;SDS011;6795;51.232;3.764;2024-03-23T04:16:10;26.50;;;8.77;;
13445;SDS011;6795;51.232;3.764;2024-03-23T04:18:36;35.88;;;8.32;;
13445;SDS011;6795;51.232;3.764;2024-03-23T04:21:03;23.60;;;7.47;;
13445;SDS011;6795;51.232;3.764;2024-03-23T04:23:30;22.98;;;6.78;;
13445;SDS011;6795;51.232;3.764;2024-03-23T04:26:01;31.88;;;6.60;;
13445;SDS011;6795;51.232;3.764;2024-03-23T04:28:28;25.95;;;6.53;;
13445;SDS011;6795;51.232;3.764;2024-03-23T04:30:54;16.80;;;5.43;;
13445;SDS011;6795;51.232;3.764;2024-03-23T04:33:21;18.02;;;5.32;;
13445;SDS011;6795;51.232;3.764;2024-03-23T04:35:49;29.25;;;5.43;;
13445;SDS011;6795;51.232;3.764;2024-03-23T04:38:15;19.50;;;5.07;;
13445;SDS011;6795;51.232;3.764;2024-03-23T04:40:42;28.00;;;5.78;;
13445;SDS011;6795;51.232;3.764;2024-03-23T04:43:08;24.15;;;4.97;;
13445;SDS011;6795;51.232;3.764;2024-03-23T04:45:34;26.88;;;5.22;;
13445;SDS011;6795;51.232;3.764;2024-03-23T04:48:01;22.40;;;5.72;;
13445;SDS011;6795;51.232;3.764;2024-03-23T04:50:27;24.33;;;5.55;;
13445;SDS011;6795;51.232;3.764;2024-03-23T04:52:54;27.63;;;6.20;;
13445;SDS011;6795;51.232;3.764;2024-03-23T04:55:20;24.40;;;4.22;;
13445;SDS011;6795;51.232;3.764;2024-03-23T04:57:47;25.00;;;4.78;;
13445;SDS011;6795;51.232;3.764;2024-03-23T05:00:14;23.40;;;3.97;;
13445;SDS011;6795;51.232;3.764;2024-03-23T05:02:44;21.25;;;4.05;;
13445;SDS011;6795;51.232;3.764;2024-03-23T05:05:11;30.80;;;5.00;;
13445;SDS011;6795;51.232;3.764;2024-03-23T05:07:37;25.13;;;4.32;;
13445;SDS011;6795;51.232;3.764;2024-03-23T05:10:04;24.65;;;3.55;;
13445;SDS011;6795;51.232;3.764;2024-03-23T05:12:31;25.73;;;4.20;;
13445;SDS011;6795;51.232;3.764;2024-03-23T05:14:57;22.65;;;3.85;;
13445;SDS011;6795;51.232;3.764;2024-03-23T05:17:24;22.17;;;3.35;;
13445;SDS011;6795;51.232;3.764;2024-03-23T05:19:50;22.48;;;4.35;;
13445;SDS011;6795;51.232;3.764;2024-03-23T05:22:16;18.20;;;3.75;;
13445;SDS011;6795;51.232;3.764;2024-03-23T05:24:44;23.50;;;3.90;;
13445;SDS011;6795;51.232;3.764;2024-03-23T05:27:11;18.20;;;4.22;;
13445;SDS011;6795;51.232;3.764;2024-03-23T05:29:37;25.98;;;4.32;;
13445;SDS011;6795;51.232;3.764;2024-03-23T05:32:03;24.60;;;4.35;;
13445;SDS011;6795;51.232;3.764;2024-03-23T05:34:30;25.33;;;4.47;;
13445;SDS011;6795;51.232;3.764;2024-03-23T05:36:56;31.80;;;4.22;;
13445;SDS011;6795;51.232;3.764;2024-03-23T05:39:23;21.90;;;3.08;;
13445;SDS011;6795;51.232;3.764;2024-03-23T05:41:49;16.70;;;4.03;;
13445;SDS011;6795;51.232;3.764;2024-03-23T05:44:16;20.13;;;4.28;;
13445;SDS011;6795;51.232;3.764;2024-03-23T05:46:42;19.15;;;3.40;;
13445;SDS011;6795;51.232;3.764;2024-03-23T05:49:13;19.10;;;2.80;;
13445;SDS011;6795;51.232;3.764;2024-03-23T05:51:40;18.92;;;3.95;;
13445;SDS011;6795;51.232;3.764;2024-03-23T05:54:06;24.20;;;3.17;;
13445;SDS011;6795;51.232;3.764;2024-03-23T05:56:33;18.60;;;3.40;;
13445;SDS011;6795;51.232;3.764;2024-03-23T05:58:59;21.75;;;3.58;;
13445;SDS011;6795;51.232;3.764;2024-03-23T06:01:25;23.65;;;3.85;;
13445;SDS011;6795;51.232;3.764;2024-03-23T06:03:54;15.43;;;3.00;;
13445;SDS011;6795;51.232;3.764;2024-03-23T06:06:20;18.35;;;3.45;;
13445;SDS011;6795;51.232;3.764;2024-03-23T06:08:47;18.52;;;2.72;;
13445;SDS011;6795;51.232;3.764;2024-03-23T06:11:13;15.05;;;2.58;;
13445;SDS011;6795;51.232;3.764;2024-03-23T06:13:39;22.15;;;2.75;;
13445;SDS011;6795;51.232;3.764;2024-03-23T06:16:06;17.50;;;2.75;;
13445;SDS011;6795;51.232;3.764;2024-03-23T06:18:32;21.67;;;2.85;;
13445;SDS011;6795;51.232;3.764;2024-03-23T06:20:59;17.02;;;2.72;;
13445;SDS011;6795;51.232;3.764;2024-03-23T06:23:25;19.15;;;2.72;;
13445;SDS011;6795;51.232;3.764;2024-03-23T06:25:52;14.85;;;2.95;;
13445;SDS011;6795;51.232;3.764;2024-03-23T06:28:18;19.83;;;2.17;;
13445;SDS011;6795;51.232;3.764;2024-03-23T06:30:46;15.20;;;2.15;;
13445;SDS011;6795;51.232;3.764;2024-03-23T06:33:12;21.55;;;3.20;;
13445;SDS011;6795;51.232;3.764;2024-03-23T06:35:39;19.60;;;2.35;;
13445;SDS011;6795;51.232;3.764;2024-03-23T06:38:06;17.60;;;2.35;;
13445;SDS011;6795;51.232;3.764;2024-03-23T06:40:33;19.95;;;2.63;;
13445;SDS011;6795;51.232;3.764;2024-03-23T06:43:02;13.40;;;2.90;;
13445;SDS011;6795;51.232;3.764;2024-03-23T06:45:28;26.08;;;3.08;;
13445;SDS011;6795;51.232;3.764;2024-03-23T06:47:54;17.75;;;3.03;;
13445;SDS011;6795;51.232;3.764;2024-03-23T06:50:23;20.20;;;2.67;;
13445;SDS011;6795;51.232;3.764;2024-03-23T06:52:49;14.98;;;2.72;;
13445;SDS011;6795;51.232;3.764;2024-03-23T06:55:16;21.80;;;3.15;;
13445;SDS011;6795;51.232;3.764;2024-03-23T06:57:42;11.55;;;2.75;;
13445;SDS011;6795;51.232;3.764;2024-03-23T07:00:09;17.00;;;2.45;;
13445;SDS011;6795;51.232;3.764;2024-03-23T07:02:35;13.95;;;3.03;;
13445;SDS011;6795;51.232;3.764;2024-03-23T07:05:02;10.98;;;2.40;;
13445;SDS011;6795;51.232;3.764;2024-03-23T07:07:28;18.58;;;2.63;;
13445;SDS011;6795;51.232;3.764;2024-03-23T07:09:55;11.43;;;2.03;;
13445;SDS011;6795;51.232;3.764;2024-03-23T07:12:22;26.38;;;4.13;;
13445;SDS011;6795;51.232;3.764;2024-03-23T07:14:48;17.60;;;2.90;;
13445;SDS011;6795;51.232;3.764;2024-03-23T07:17:14;19.17;;;4.95;;
13445;SDS011;6795;51.232;3.764;2024-03-23T07:19:41;18.55;;;3.92;;
13445;SDS011;6795;51.232;3.764;2024-03-23T07:22:08;15.88;;;4.40;;
13445;SDS011;6795;51.232;3.764;2024-03-23T07:24:34;18.17;;;3.03;;
13445;SDS011;6795;51.232;3.764;2024-03-23T07:27:01;15.68;;;3.10;;
13445;SDS011;6795;51.232;3.764;2024-03-23T07:29:28;15.98;;;3.08;;
13445;SDS011;6795;51.232;3.764;2024-03-23T07:31:55;14.48;;;3.70;;
13445;SDS011;6795;51.232;3.764;2024-03-23T07:34:21;8.90;;;2.20;;
13445;SDS011;6795;51.232;3.764;2024-03-23T07:36:48;10.02;;;1.52;;
13445;SDS011;6795;51.232;3.764;2024-03-23T07:39:14;10.25;;;1.65;;
13445;SDS011;6795;51.232;3.764;2024-03-23T07:41:40;10.40;;;2.03;;
13445;SDS011;6795;51.232;3.764;2024-03-23T07:44:10;18.52;;;1.85;;
13445;SDS011;6795;51.232;3.764;2024-03-23T07:46:37;11.85;;;2.58;;
13445;SDS011;6795;51.232;3.764;2024-03-23T07:49:06;14.45;;;1.55;;
13445;SDS011;6795;51.232;3.764;2024-03-23T07:51:33;9.45;;;1.25;;
13445;SDS011;6795;51.232;3.764;2024-03-23T07:54:00;11.95;;;1.52;;
13445;SDS011;6795;51.232;3.764;2024-03-23T07:56:26;6.57;;;0.60;;
13445;SDS011;6795;51.232;3.764;2024-03-23T07:58:53;12.88;;;1.13;;
13445;SDS011;6795;51.232;3.764;2024-03-23T08:01:19;11.05;;;1.10;;
13445;SDS011;6795;51.232;3.764;2024-03-23T08:03:45;12.48;;;0.90;;
13445;SDS011;6795;51.232;3.764;2024-03-23T08:06:16;13.20;;;1.00;;
13445;SDS011;6795;51.232;3.764;2024-03-23T08:08:43;13.85;;;1.08;;
13445;SDS011;6795;51.232;3.764;2024-03-23T08:11:13;8.70;;;1.17;;
13445;SDS011;6795;51.232;3.764;2024-03-23T08:13:40;14.63;;;1.52;;
13445;SDS011;6795;51.232;3.764;2024-03-23T08:16:06;12.23;;;0.98;;
13445;SDS011;6795;51.232;3.764;2024-03-23T08:18:34;9.63;;;0.82;;
13445;SDS011;6795;51.232;3.764;2024-03-23T08:21:04;13.13;;;1.30;;
13445;SDS011;6795;51.232;3.764;2024-03-23T08:23:31;9.82;;;0.80;;
13445;SDS011;6795;51.232;3.764;2024-03-23T08:26:05;8.23;;;0.57;;
13445;SDS011;6795;51.232;3.764;2024-03-23T08:28:32;10.30;;;1.48;;
13445;SDS011;6795;51.232;3.764;2024-03-23T08:31:03;6.78;;;0.80;;
13445;SDS011;6795;51.232;3.764;2024-03-23T08:33:30;8.52;;;0.50;;
13445;SDS011;6795;51.232;3.764;2024-03-23T08:35:58;6.68;;;0.60;;
13445;SDS011;6795;51.232;3.764;2024-03-23T08:38:25;7.82;;;0.82;;
13445;SDS011;6795;51.232;3.764;2024-03-23T08:40:58;5.03;;;0.65;;
13445;SDS011;6795;51.232;3.764;2024-03-23T08:43:25;12.40;;;1.20;;
13445;SDS011;6795;51.232;3.764;2024-03-23T08:45:51;5.47;;;0.57;;
13445;SDS011;6795;51.232;3.764;2024-03-23T08:48:21;9.23;;;0.65;;
13445;SDS011;6795;51.232;3.764;2024-03-23T08:50:47;7.13;;;0.70;;
13445;SDS011;6795;51.232;3.764;2024-03-23T08:53:23;7.53;;;0.52;;
13445;SDS011;6795;51.232;3.764;2024-03-23T08:55:53;6.68;;;0.55;;
13445;SDS011;6795;51.232;3.764;2024-03-23T08:58:20;5.68;;;0.82;;
13445;SDS011;6795;51.232;3.764;2024-03-23T09:00:46;6.43;;;1.13;;
13445;SDS011;6795;51.232;3.764;2024-03-23T09:03:13;5.40;;;0.40;;
13445;SDS011;6795;51.232;3.764;2024-03-23T09:05:39;6.25;;;0.75;;
13445;SDS011;6795;51.232;3.764;2024-03-23T09:08:06;6.15;;;0.60;;
13445;SDS011;6795;51.232;3.764;2024-03-23T09:10:35;7.95;;;0.70;;
13445;SDS011;6795;51.232;3.764;2024-03-23T09:13:02;4.50;;;0.40;;
13445;SDS011;6795;51.232;3.764;2024-03-23T09:15:28;6.13;;;1.23;;
13445;SDS011;6795;51.232;3.764;2024-03-23T09:17:54;9.65;;;0.88;;
13445;SDS011;6795;51.232;3.764;2024-03-23T09:20:21;3.58;;;0.45;;
13445;SDS011;6795;51.232;3.764;2024-03-23T09:22:48;8.52;;;0.88;;
13445;SDS011;6795;51.232;3.764;2024-03-23T09:25:14;6.55;;;0.93;;
13445;SDS011;6795;51.232;3.764;2024-03-23T09:27:40;8.77;;;1.37;;
13445;SDS011;6795;51.232;3.764;2024-03-23T09:30:07;9.02;;;1.13;;
13445;SDS011;6795;51.232;3.764;2024-03-23T09:32:35;7.85;;;0.70;;
13445;SDS011;6795;51.232;3.764;2024-03-23T09:35:01;4.65;;;0.65;;
13445;SDS011;6795;51.232;3.764;2024-03-23T09:37:28;7.05;;;0.63;;
13445;SDS011;6795;51.232;3.764;2024-03-23T09:39:54;7.03;;;1.23;;
13445;SDS011;6795;51.232;3.764;2024-03-23T09:42:21;10.25;;;1.05;;
13445;SDS011;6795;51.232;3.764;2024-03-23T09:44:47;12.32;;;1.60;;
13445;SDS011;6795;51.232;3.764;2024-03-23T09:47:17;6.68;;;0.95;;
13445;SDS011;6795;51.232;3.764;2024-03-23T09:49:43;1.25;;;0.20;;
13445;SDS011;6795;51.232;3.764;2024-03-23T09:52:10;5.40;;;0.40;;
13445;SDS011;6795;51.232;3.764;2024-03-23T09:54:36;1.88;;;0.25;;
13445;SDS011;6795;51.232;3.764;2024-03-23T09:57:03;4.50;;;0.52;;
13445;SDS011;6795;51.232;3.764;2024-03-23T09:59:29;5.18;;;0.70;;
13445;SDS011;6795;51.232;3.764;2024-03-23T10:01:56;7.18;;;0.90;;
13445;SDS011;6795;51.232;3.764;2024-03-23T10:04:35;7.10;;;0.60;;
13445;SDS011;6795;51.232;3.764;2024-03-23T10:07:15;6.97;;;0.50;;
13445;SDS011;6795;51.232;3.764;2024-03-23T10:09:42;7.15;;;0.55;;
13445;SDS011;6795;51.232;3.764;2024-03-23T10:12:09;8.88;;;0.70;;
13445;SDS011;6795;51.232;3.764;2024-03-23T10:14:36;4.95;;;0.43;;
13445;SDS011;6795;51.232;3.764;2024-03-23T10:17:21;3.70;;;0.30;;
13445;SDS011;6795;51.232;3.764;2024-03-23T10:19:52;5.30;;;0.40;;
13445;SDS011;6795;51.232;3.764;2024-03-23T10:22:19;3.97;;;0.30;;
13445;SDS011;6795;51.232;3.764;2024-03-23T10:24:46;3.90;;;1.27;;
13445;SDS011;6795;51.232;3.764;2024-03-23T10:27:17;6.43;;;0.40;;
13445;SDS011;6795;51.232;3.764;2024-03-23T10:29:47;4.80;;;0.50;;
13445;SDS011;6795;51.232;3.764;2024-03-23T10:32:15;7.65;;;0.90;;
13445;SDS011;6795;51.232;3.764;2024-03-23T10:34:41;7.38;;;0.45;;
13445;SDS011;6795;51.232;3.764;2024-03-23T10:37:08;4.53;;;0.60;;
13445;SDS011;6795;51.232;3.764;2024-03-23T10:39:38;2.85;;;0.50;;
13445;SDS011;6795;51.232;3.764;2024-03-23T10:42:05;4.43;;;0.50;;
13445;SDS011;6795;51.232;3.764;2024-03-23T10:44:33;5.30;;;0.57;;
13445;SDS011;6795;51.232;3.764;2024-03-23T10:47:03;5.40;;;0.60;;
13445;SDS011;6795;51.232;3.764;2024-03-23T10:49:30;3.80;;;0.50;;
13445;SDS011;6795;51.232;3.764;2024-03-23T10:51:58;3.17;;;0.40;;
13445;SDS011;6795;51.232;3.764;2024-03-23T10:54:25;4.10;;;0.30;;
13445;SDS011;6795;51.232;3.764;2024-03-23T10:56:59;5.93;;;0.50;;
13445;SDS011;6795;51.232;3.764;2024-03-23T10:59:28;3.85;;;0.55;;
13445;SDS011;6795;51.232;3.764;2024-03-23T11:01:59;6.43;;;0.50;;
13445;SDS011;6795;51.232;3.764;2024-03-23T11:06:57;5.18;;;0.40;;
13445;SDS011;6795;51.232;3.764;2024-03-23T11:14:48;4.93;;;0.50;;
13445;SDS011;6795;51.232;3.764;2024-03-23T11:17:18;7.25;;;1.05;;
13445;SDS011;6795;51.232;3.764;2024-03-23T11:19:49;4.18;;;0.57;;
13445;SDS011;6795;51.232;3.764;2024-03-23T11:22:37;3.72;;;0.50;;
13445;SDS011;6795;51.232;3.764;2024-03-23T11:27:39;5.20;;;0.55;;
13445;SDS011;6795;51.232;3.764;2024-03-23T11:30:22;4.57;;;0.50;;
13445;SDS011;6795;51.232;3.764;2024-03-23T11:32:49;5.78;;;0.35;;
13445;SDS011;6795;51.232;3.764;2024-03-23T11:40:31;5.70;;;0.57;;
13445;SDS011;6795;51.232;3.764;2024-03-23T11:42:58;2.95;;;0.63;;
13445;SDS011;6795;51.232;3.764;2024-03-23T11:45:25;6.13;;;0.65;;
13445;SDS011;6795;51.232;3.764;2024-03-23T11:48:11;6.57;;;0.40;;
13445;SDS011;6795;51.232;3.764;2024-03-23T11:50:41;6.20;;;0.40;;
13445;SDS011;6795;51.232;3.764;2024-03-23T11:53:13;7.07;;;0.75;;
13445;SDS011;6795;51.232;3.764;2024-03-23T11:55:46;7.63;;;0.50;;
13445;SDS011;6795;51.232;3.764;2024-03-23T11:58:13;5.10;;;0.73;;
13445;SDS011;6795;51.232;3.764;2024-03-23T12:00:40;6.85;;;0.70;;
13445;SDS011;6795;51.232;3.764;2024-03-23T12:03:06;8.77;;;0.88;;
13445;SDS011;6795;51.232;3.764;2024-03-23T12:05:33;6.00;;;1.00;;
13445;SDS011;6795;51.232;3.764;2024-03-23T12:08:15;6.00;;;0.60;;
13445;SDS011;6795;51.232;3.764;2024-03-23T12:10:47;5.00;;;0.40;;
13445;SDS011;6795;51.232;3.764;2024-03-23T12:13:17;5.68;;;0.40;;
13445;SDS011;6795;51.232;3.764;2024-03-23T12:15:44;4.45;;;0.70;;
13445;SDS011;6795;51.232;3.764;2024-03-23T12:18:10;5.25;;;0.65;;
13445;SDS011;6795;51.232;3.764;2024-03-23T12:20:37;3.78;;;0.47;;
13445;SDS011;6795;51.232;3.764;2024-03-23T12:23:11;3.42;;;0.50;;
13445;SDS011;6795;51.232;3.764;2024-03-23T12:25:38;6.68;;;0.50;;
13445;SDS011;6795;51.232;3.764;2024-03-23T12:28:05;6.50;;;0.60;;
13445;SDS011;6795;51.232;3.764;2024-03-23T12:30:32;7.78;;;0.40;;
13445;SDS011;6795;51.232;3.764;2024-03-23T12:32:59;4.30;;;0.40;;
13445;SDS011;6795;51.232;3.764;2024-03-23T12:35:25;4.45;;;0.80;;
13445;SDS011;6795;51.232;3.764;2024-03-23T12:37:51;3.10;;;0.30;;
13445;SDS011;6795;51.232;3.764;2024-03-23T12:40:18;4.25;;;0.50;;
13445;SDS011;6795;51.232;3.764;2024-03-23T12:42:44;4.63;;;0.22;;
13445;SDS011;6795;51.232;3.764;2024-03-23T12:45:11;0.57;;;0.08;;
13445;SDS011;6795;51.232;3.764;2024-03-23T12:47:37;3.22;;;0.95;;
13445;SDS011;6795;51.232;3.764;2024-03-23T12:50:03;1.85;;;0.05;;
13445;SDS011;6795;51.232;3.764;2024-03-23T12:52:31;0.45;;;0.15;;
13445;SDS011;6795;51.232;3.764;2024-03-23T12:54:58;1.50;;;0.55;;
13445;SDS011;6795;51.232;3.764;2024-03-23T12:57:25;1.45;;;0.47;;
13445;SDS011;6795;51.232;3.764;2024-03-23T12:59:51;0.82;;;0.20;;
13445;SDS011;6795;51.232;3.764;2024-03-23T13:02:21;0.30;;;0.10;;
13445;SDS011;6795;51.232;3.764;2024-03-23T13:04:51;3.25;;;0.20;;
13445;SDS011;6795;51.232;3.764;2024-03-23T13:07:18;1.00;;;0.20;;
13445;SDS011;6795;51.232;3.764;2024-03-23T13:09:44;1.35;;;0.20;;
13445;SDS011;6795;51.232;3.764;2024-03-23T13:12:11;1.30;;;0.20;;
13445;SDS011;6795;51.232;3.764;2024-03-23T13:14:38;2.00;;;0.40;;
13445;SDS011;6795;51.232;3.764;2024-03-23T13:17:04;2.45;;;0.28;;
13445;SDS011;6795;51.232;3.764;2024-03-23T13:19:31;2.13;;;0.30;;
13445;SDS011;6795;51.232;3.764;2024-03-23T13:21:58;2.28;;;0.30;;
13445;SDS011;6795;51.232;3.764;2024-03-23T13:24:25;3.33;;;0.40;;
13445;SDS011;6795;51.232;3.764;2024-03-23T13:26:52;1.25;;;0.45;;
13445;SDS011;6795;51.232;3.764;2024-03-23T13:29:19;4.40;;;0.35;;
13445;SDS011;6795;51.232;3.764;2024-03-23T13:31:46;2.45;;;0.52;;
13445;SDS011;6795;51.232;3.764;2024-03-23T13:34:12;3.95;;;0.45;;
13445;SDS011;6795;51.232;3.764;2024-03-23T13:36:42;2.35;;;0.40;;
13445;SDS011;6795;51.232;3.764;2024-03-23T13:39:09;6.60;;;0.50;;
13445;SDS011;6795;51.232;3.764;2024-03-23T13:41:38;4.13;;;0.60;;
13445;SDS011;6795;51.232;3.764;2024-03-23T13:44:05;4.70;;;0.60;;
13445;SDS011;6795;51.232;3.764;2024-03-23T13:46:32;3.80;;;0.50;;
13445;SDS011;6795;51.232;3.764;2024-03-23T13:48:59;5.55;;;0.50;;
13445;SDS011;6795;51.232;3.764;2024-03-23T13:51:26;2.83;;;0.47;;
13445;SDS011;6795;51.232;3.764;2024-03-23T13:53:53;4.22;;;0.40;;
13445;SDS011;6795;51.232;3.764;2024-03-23T13:56:20;2.35;;;0.40;;
13445;SDS011;6795;51.232;3.764;2024-03-23T13:58:47;2.35;;;0.60;;
13445;SDS011;6795;51.232;3.764;2024-03-23T14:01:13;1.80;;;0.50;;
13445;SDS011;6795;51.232;3.764;2024-03-23T14:03:40;4.88;;;0.80;;
13445;SDS011;6795;51.232;3.764;2024-03-23T14:06:07;11.82;;;0.65;;
13445;SDS011;6795;51.232;3.764;2024-03-23T14:08:34;0.10;;;0.10;;
13445;SDS011;6795;51.232;3.764;2024-03-23T14:11:02;0.35;;;0.10;;
13445;SDS011;6795;51.232;3.764;2024-03-23T14:13:29;2.20;;;0.20;;
13445;SDS011;6795;51.232;3.764;2024-03-23T14:15:56;1.30;;;0.20;;
13445;SDS011;6795;51.232;3.764;2024-03-23T14:18:22;3.20;;;0.22;;
13445;SDS011;6795;51.232;3.764;2024-03-23T14:20:49;2.42;;;0.30;;
13445;SDS011;6795;51.232;3.764;2024-03-23T14:23:16;2.88;;;0.25;;
13445;SDS011;6795;51.232;3.764;2024-03-23T14:25:42;4.63;;;0.40;;
13445;SDS011;6795;51.232;3.764;2024-03-23T14:28:08;3.92;;;0.57;;
13445;SDS011;6795;51.232;3.764;2024-03-23T14:30:40;1.98;;;0.30;;
13445;SDS011;6795;51.232;3.764;2024-03-23T14:33:07;2.30;;;0.28;;
13445;SDS011;6795;51.232;3.764;2024-03-23T14:35:33;4.68;;;0.20;;
13445;SDS011;6795;51.232;3.764;2024-03-23T14:37:59;3.08;;;0.40;;
13445;SDS011;6795;51.232;3.764;2024-03-23T14:40:27;1.30;;;0.20;;
13445;SDS011;6795;51.232;3.764;2024-03-23T14:42:54;2.92;;;0.50;;
13445;SDS011;6795;51.232;3.764;2024-03-23T14:45:21;2.30;;;0.60;;
13445;SDS011;6795;51.232;3.764;2024-03-23T14:47:49;4.07;;;0.40;;
13445;SDS011;6795;51.232;3.764;2024-03-23T14:50:15;5.00;;;0.50;;
13445;SDS011;6795;51.232;3.764;2024-03-23T14:52:43;3.53;;;0.40;;
13445;SDS011;6795;51.232;3.764;2024-03-23T14:55:10;2.33;;;0.40;;
13445;SDS011;6795;51.232;3.764;2024-03-23T14:57:37;3.10;;;0.60;;
13445;SDS011;6795;51.232;3.764;2024-03-23T15:00:06;2.38;;;0.30;;
13445;SDS011;6795;51.232;3.764;2024-03-23T15:02:33;2.10;;;0.40;;
13445;SDS011;6795;51.232;3.764;2024-03-23T15:05:00;2.13;;;0.40;;
13445;SDS011;6795;51.232;3.764;2024-03-23T15:07:26;2.15;;;0.40;;
13445;SDS011;6795;51.232;3.764;2024-03-23T15:09:53;4.90;;;0.50;;
13445;SDS011;6795;51.232;3.764;2024-03-23T15:12:20;3.83;;;0.30;;
13445;SDS011;6795;51.232;3.764;2024-03-23T15:14:47;2.50;;;0.40;;
13445;SDS011;6795;51.232;3.764;2024-03-23T15:17:13;1.33;;;0.75;;
13445;SDS011;6795;51.232;3.764;2024-03-23T15:19:40;2.83;;;0.50;;
13445;SDS011;6795;51.232;3.764;2024-03-23T15:22:08;1.20;;;0.30;;
13445;SDS011;6795;51.232;3.764;2024-03-23T15:24:35;3.92;;;0.52;;
13445;SDS011;6795;51.232;3.764;2024-03-23T15:27:04;2.17;;;0.38;;
13445;SDS011;6795;51.232;3.764;2024-03-23T15:29:34;5.05;;;0.50;;
13445;SDS011;6795;51.232;3.764;2024-03-23T15:32:02;1.23;;;0.30;;
13445;SDS011;6795;51.232;3.764;2024-03-23T15:34:29;3.53;;;0.40;;
13445;SDS011;6795;51.232;3.764;2024-03-23T15:36:55;1.45;;;0.50;;
13445;SDS011;6795;51.232;3.764;2024-03-23T15:39:22;2.53;;;0.45;;
13445;SDS011;6795;51.232;3.764;2024-03-23T15:41:48;2.63;;;0.73;;
13445;SDS011;6795;51.232;3.764;2024-03-23T15:44:15;4.13;;;0.65;;
13445;SDS011;6795;51.232;3.764;2024-03-23T15:46:41;3.17;;;0.30;;
13445;SDS011;6795;51.232;3.764;2024-03-23T15:49:07;3.03;;;0.20;;
13445;SDS011;6795;51.232;3.764;2024-03-23T15:51:34;1.42;;;0.30;;
13445;SDS011;6795;51.232;3.764;2024-03-23T15:54:02;4.07;;;0.52;;
13445;SDS011;6795;51.232;3.764;2024-03-23T15:56:29;2.97;;;0.28;;
13445;SDS011;6795;51.232;3.764;2024-03-23T15:58:55;3.35;;;0.52;;
13445;SDS011;6795;51.232;3.764;2024-03-23T16:01:26;3.28;;;0.47;;
13445;SDS011;6795;51.232;3.764;2024-03-23T16:03:52;3.67;;;0.30;;